createdAt,value
2023-01-10T00:00:00.960Z,78.40
2023-01-10T00:05:03.750Z,78.40
2023-01-10T00:10:06.180Z,78.80
2023-01-10T00:15:08.908Z,78.10
2023-01-10T00:20:11.835Z,77.60
2023-01-10T00:25:14.306Z,77.90
2023-01-10T00:30:17.136Z,77.80
2023-01-10T00:35:20.214Z,77.20
2023-01-10T00:40:22.462Z,76.70
2023-01-10T00:45:25.299Z,76.80
2023-01-10T00:50:27.601Z,77.00
2023-01-10T00:55:29.962Z,77.40
2023-01-10T01:00:32.255Z,77.20
2023-01-10T01:05:39.733Z,76.90
2023-01-10T01:10:42.090Z,77.00
2023-01-10T01:15:44.676Z,76.90
2023-01-10T01:20:48.115Z,76.90
2023-01-10T01:25:54.089Z,77.30
2023-01-10T01:30:56.399Z,76.70
2023-01-10T01:35:58.651Z,77.20
2023-01-10T01:41:00.865Z,77.40
2023-01-10T01:46:04.398Z,77.50
2023-01-10T01:51:19.500Z,76.50
2023-01-10T01:56:28.738Z,77.30
2023-01-10T02:01:32.860Z,77.40
2023-01-10T02:06:35.349Z,77.40
2023-01-10T02:11:37.600Z,76.90
2023-01-10T02:16:39.867Z,77.70
2023-01-10T02:27:33.210Z,76.80
2023-01-10T02:38:00.783Z,76.80
2023-01-10T02:48:13.036Z,78.10
2023-01-10T02:53:23.528Z,78.80
2023-01-10T02:58:54.727Z,78.60
2023-01-10T03:14:23.016Z,78.90
2023-01-10T03:19:31.498Z,78.80
2023-01-10T03:24:39.504Z,79.70
2023-01-10T03:30:21.499Z,79.40
2023-01-10T03:35:33.379Z,79.40
2023-01-10T03:40:46.307Z,78.90
2023-01-10T03:46:11.368Z,79.00
2023-01-10T03:51:15.853Z,77.90
2023-01-10T03:56:18.116Z,77.40
2023-01-10T04:01:20.546Z,77.50
2023-01-10T04:06:22.891Z,78.40
2023-01-10T04:11:25.216Z,78.10
2023-01-10T04:16:27.634Z,78.20
2023-01-10T04:21:29.940Z,78.60
2023-01-10T04:26:32.582Z,77.70
2023-01-10T04:31:35.011Z,78.40
2023-01-10T04:36:37.455Z,78.00
2023-01-10T04:41:39.819Z,77.00
2023-01-10T04:46:42.103Z,77.80
2023-01-10T04:51:44.384Z,77.70
2023-01-10T04:56:46.639Z,79.10
2023-01-10T05:01:48.995Z,78.20
2023-01-10T05:06:51.415Z,77.80
2023-01-10T05:11:53.676Z,78.70
2023-01-10T05:16:56.699Z,78.40
2023-01-10T05:21:59.029Z,78.80
2023-01-10T05:27:01.254Z,78.90
2023-01-10T05:32:03.609Z,79.50
2023-01-10T05:37:05.908Z,79.80
2023-01-10T05:42:08.102Z,79.50
2023-01-10T05:47:10.374Z,78.90
2023-01-10T05:52:12.665Z,78.70
2023-01-10T05:57:14.948Z,78.30
2023-01-10T06:02:17.448Z,77.00
2023-01-10T06:07:19.742Z,76.30
2023-01-10T06:12:21.941Z,76.50
2023-01-10T06:17:24.237Z,76.60
2023-01-10T06:22:27.998Z,76.20
2023-01-10T06:27:30.438Z,76.70
2023-01-10T06:32:33.332Z,76.90
2023-01-10T06:37:35.561Z,75.70
2023-01-10T06:42:37.772Z,76.20
2023-01-10T06:47:40.012Z,76.00
2023-01-10T06:52:42.386Z,76.30
2023-01-10T06:57:44.636Z,75.60
2023-01-10T07:02:47.057Z,76.20
2023-01-10T07:07:49.632Z,75.80
2023-01-10T07:12:51.902Z,75.70
2023-01-10T07:17:56.878Z,75.40
2023-01-10T07:23:00.515Z,75.20
2023-01-10T07:28:04.661Z,75.20
2023-01-10T07:33:06.943Z,76.80
2023-01-10T07:38:09.514Z,76.80
2023-01-10T07:43:11.736Z,75.70
2023-01-10T07:48:13.978Z,76.10
2023-01-10T07:53:16.197Z,76.50
2023-01-10T07:58:18.916Z,77.40
2023-01-10T08:03:22.374Z,77.10
2023-01-10T08:08:24.699Z,77.60
2023-01-10T08:13:27.159Z,76.60
2023-01-10T08:18:29.447Z,76.20
2023-01-10T08:23:32.483Z,76.40
2023-01-10T08:28:34.725Z,76.40
2023-01-10T08:33:40.197Z,76.50
2023-01-10T08:38:42.436Z,76.50
2023-01-10T08:43:44.682Z,76.20
2023-01-10T08:48:47.249Z,76.90
2023-01-10T08:53:49.468Z,76.80
2023-01-10T08:58:51.696Z,76.20
2023-01-10T09:03:53.936Z,76.50
2023-01-10T09:08:56.192Z,76.30
2023-01-10T09:13:58.700Z,76.40
2023-01-10T09:19:01.015Z,76.70
2023-01-10T09:24:03.356Z,77.20
2023-01-10T09:29:05.627Z,77.60
2023-01-10T09:34:07.905Z,76.30
2023-01-10T09:39:10.172Z,75.50
2023-01-10T09:54:43.001Z,75.10
2023-01-10T09:59:49.079Z,76.30
2023-01-10T10:10:26.073Z,77.20
2023-01-10T10:26:11.984Z,77.10
2023-01-10T10:41:56.415Z,76.80
2023-01-10T10:46:59.715Z,78.10
2023-01-10T10:52:08.154Z,77.00
2023-01-10T10:57:12.746Z,76.80
2023-01-10T11:02:33.047Z,77.00
2023-01-10T11:07:37.661Z,76.30
2023-01-10T11:12:45.303Z,77.20
2023-01-10T11:18:10.705Z,76.70
2023-01-10T11:23:21.520Z,77.60
2023-01-10T11:28:27.798Z,77.00
2023-01-10T11:33:35.674Z,77.20
2023-01-10T11:38:37.912Z,77.10
2023-01-10T11:43:41.350Z,76.40
2023-01-10T11:54:00.906Z,77.00
2023-01-10T11:59:14.760Z,76.70
2023-01-10T12:04:21.198Z,76.70
2023-01-10T12:14:56.166Z,76.20
2023-01-10T12:20:01.595Z,75.50
2023-01-10T12:25:11.524Z,75.50
2023-01-10T12:30:21.995Z,75.50
2023-01-10T12:40:53.553Z,75.00
2023-01-10T12:46:12.659Z,74.70
2023-01-10T12:51:19.241Z,74.60
2023-01-10T12:56:21.907Z,74.20
2023-01-10T13:01:30.151Z,74.50
2023-01-10T13:06:38.568Z,74.60
2023-01-10T13:11:48.701Z,75.40
2023-01-10T13:17:11.648Z,75.90
2023-01-10T13:22:35.964Z,76.20
2023-01-10T13:27:38.459Z,76.20
2023-01-10T13:32:40.804Z,76.10
2023-01-10T13:52:20.608Z,76.60
2023-01-10T13:57:49.954Z,76.50
2023-01-10T14:02:52.975Z,76.20
2023-01-10T14:07:56.682Z,76.60
2023-01-10T14:18:22.677Z,76.50
2023-01-10T14:23:35.289Z,76.30
2023-01-10T14:28:40.592Z,76.60
2023-01-10T14:33:44.217Z,76.70
2023-01-10T14:38:47.413Z,76.30
2023-01-10T14:43:57.732Z,76.60
2023-01-10T14:49:01.104Z,77.00
2023-01-10T14:54:13.781Z,77.60
2023-01-10T15:04:33.028Z,77.80
2023-01-10T15:09:35.327Z,77.20
2023-01-10T15:14:38.223Z,77.30
2023-01-10T15:19:41.053Z,76.50
2023-01-10T15:24:43.342Z,76.80
2023-01-10T15:29:47.139Z,77.00
2023-01-10T15:34:53.186Z,77.10
2023-01-10T15:39:55.741Z,76.90
2023-01-10T15:44:58.453Z,77.20
2023-01-10T15:50:00.908Z,78.30
2023-01-10T15:55:34.976Z,79.10
2023-01-10T16:00:37.256Z,80.60
2023-01-10T16:05:39.553Z,81.80
2023-01-10T16:10:41.821Z,82.80
2023-01-10T16:15:44.084Z,83.90
2023-01-10T16:20:48.789Z,85.00
2023-01-10T16:25:53.998Z,85.70
2023-01-10T16:30:56.243Z,85.40
2023-01-10T16:36:00.252Z,85.80
2023-01-10T16:41:23.926Z,86.20
2023-01-10T16:46:26.716Z,86.60
2023-01-10T16:51:32.738Z,87.20
2023-01-10T16:56:35.006Z,87.30
2023-01-10T17:01:42.331Z,87.30
2023-01-10T17:06:44.560Z,87.10
2023-01-10T17:11:47.067Z,86.60
2023-01-10T17:16:50.096Z,86.30
2023-01-10T17:21:53.039Z,85.50
2023-01-10T17:26:55.300Z,85.00
2023-01-10T17:31:57.607Z,85.50
2023-01-10T17:36:59.870Z,84.40
2023-01-10T17:42:02.442Z,84.30
2023-01-10T17:47:04.814Z,84.00
2023-01-10T17:52:07.116Z,83.90
2023-01-10T17:57:09.439Z,83.60
2023-01-10T18:02:18.004Z,84.00
2023-01-10T18:07:20.694Z,83.80
2023-01-10T18:12:22.998Z,84.00
2023-01-10T18:17:25.460Z,84.00
2023-01-10T18:22:47.556Z,83.80
2023-01-10T18:27:50.536Z,83.50
2023-01-10T18:32:55.223Z,83.10
2023-01-10T18:37:58.644Z,83.20
2023-01-10T18:43:00.831Z,83.70
2023-01-10T18:48:05.314Z,84.50
2023-01-10T18:53:07.571Z,84.80
2023-01-10T18:58:10.596Z,84.80
2023-01-10T19:03:12.815Z,84.60
2023-01-10T19:08:15.083Z,84.90
2023-01-10T19:13:17.416Z,84.70
2023-01-10T19:18:19.646Z,85.90
2023-01-10T19:23:21.832Z,86.30
2023-01-10T19:28:24.429Z,86.80
2023-01-10T19:33:26.751Z,87.20
2023-01-10T19:38:28.988Z,87.00
2023-01-10T19:43:31.264Z,86.90
2023-01-10T19:48:38.072Z,86.30
2023-01-10T19:53:44.514Z,85.90
2023-01-10T19:58:46.863Z,85.90
2023-01-10T20:03:49.703Z,85.60
2023-01-10T20:08:54.238Z,85.20
2023-01-10T20:13:56.511Z,84.90
2023-01-10T20:18:58.819Z,85.40
2023-01-10T20:24:01.483Z,85.80
2023-01-10T20:29:04.615Z,86.00
2023-01-10T20:34:06.921Z,86.50
2023-01-10T20:39:09.403Z,86.70
2023-01-10T20:44:11.777Z,87.40
2023-01-10T20:49:14.063Z,87.30
2023-01-10T20:54:16.503Z,87.70
2023-01-10T20:59:18.743Z,87.70
2023-01-10T21:04:20.985Z,87.70
2023-01-10T21:09:23.289Z,87.90
2023-01-10T21:14:25.677Z,87.50
2023-01-10T21:19:27.958Z,88.10
2023-01-10T21:24:30.290Z,88.00
2023-01-10T21:29:32.555Z,88.30
2023-01-10T21:34:35.126Z,88.30
2023-01-10T21:39:37.279Z,88.70
2023-01-10T21:44:39.456Z,88.70
2023-01-10T21:49:41.727Z,88.50
2023-01-10T21:54:44.373Z,88.50
2023-01-10T21:59:46.574Z,88.70
2023-01-10T22:04:50.933Z,88.50
2023-01-10T22:09:53.666Z,88.70
2023-01-10T22:14:56.026Z,88.90
2023-01-10T22:20:58.578Z,89.30
2023-01-10T22:26:40.589Z,88.80
2023-01-10T22:31:43.602Z,88.30
2023-01-10T22:36:45.979Z,88.60
2023-01-10T22:41:48.322Z,89.40
2023-01-10T22:46:52.124Z,89.00
2023-01-10T22:51:54.782Z,88.50
2023-01-10T22:56:57.006Z,88.90
2023-01-10T23:01:59.275Z,88.40
2023-01-10T23:07:01.925Z,88.10
2023-01-10T23:12:04.396Z,87.00
2023-01-10T23:17:06.717Z,88.20
2023-01-10T23:22:08.979Z,88.20
2023-01-10T23:27:11.158Z,88.30
2023-01-10T23:32:13.383Z,89.00
2023-01-10T23:37:15.649Z,88.20
2023-01-10T23:42:17.928Z,88.10
2023-01-10T23:47:20.110Z,87.70
2023-01-10T23:52:22.387Z,87.70
2023-01-10T23:57:24.994Z,87.50
